Time;durP1;ratioP1;P1;durP2;ratioP2;P2;SDS_P1;SDS_P2;PMS_P1;PMS_P2;Temp;Humidity;BMP_temperature;BMP_pressure;BME280_temperature;BME280_humidity;BME280_pressure;Samples;Min_cycle;Max_cycle;Signal;HPM_P1;HPM_P2
2022/11/27 00:01:21;;;;;;;80.90;33.00;;;6.10;97.00;;;;;;4996267;28;20632;-92
2022/11/27 00:03:47;;;;;;;73.10;32.23;;;6.00;97.00;;;;;;4996031;28;20561;-91
2022/11/27 00:06:15;;;;;;;79.60;33.87;;;5.90;97.00;;;;;;4995222;28;20206;-91
2022/11/27 00:08:42;;;;;;;79.37;33.03;;;5.80;96.90;;;;;;4997644;28;20281;-91
2022/11/27 00:11:09;;;;;;;96.40;32.83;;;5.80;96.90;;;;;;4996260;28;20680;-91
2022/11/27 00:13:35;;;;;;;70.20;32.50;;;5.70;96.90;;;;;;4995984;28;20213;-91
2022/11/27 00:16:01;;;;;;;82.53;32.73;;;5.60;96.90;;;;;;4995053;28;20201;-91
2022/11/27 00:18:27;;;;;;;75.80;32.67;;;5.60;96.90;;;;;;4996215;28;20185;-91
2022/11/27 00:20:52;;;;;;;68.00;30.23;;;5.60;96.90;;;;;;4993917;28;20178;-92
2022/11/27 00:23:18;;;;;;;77.03;33.93;;;5.60;96.90;;;;;;4993460;28;20218;-91
2022/11/27 00:25:53;;;;;;;89.77;32.80;;;5.60;96.90;;;;;;4995474;28;20738;-91
2022/11/27 00:28:19;;;;;;;73.87;31.60;;;5.60;96.90;;;;;;4995086;28;20193;-91
2022/11/27 00:30:45;;;;;;;63.73;31.07;;;5.50;96.90;;;;;;4994900;28;20225;-91
2022/11/27 00:33:10;;;;;;;73.67;29.57;;;5.40;96.80;;;;;;4995533;28;20668;-92
2022/11/27 00:35:37;;;;;;;72.03;29.17;;;5.30;96.80;;;;;;4995810;28;20198;-91
2022/11/27 00:38:03;;;;;;;67.30;30.77;;;5.30;96.80;;;;;;4994121;28;20185;-92
2022/11/27 00:40:29;;;;;;;62.40;28.43;;;5.30;96.80;;;;;;4994565;28;20181;-90
2022/11/27 00:42:54;;;;;;;71.20;29.23;;;5.30;96.80;;;;;;4995574;28;20708;-91
2022/11/27 00:45:20;;;;;;;69.00;30.65;;;5.30;96.80;;;;;;4993956;28;20209;-89
2022/11/27 00:47:45;;;;;;;73.65;30.60;;;5.20;96.80;;;;;;4993681;28;20178;-90
2022/11/27 00:50:11;;;;;;;77.07;29.83;;;5.30;96.90;;;;;;4993488;28;20551;-90
2022/11/27 00:52:36;;;;;;;71.27;29.83;;;5.20;96.80;;;;;;4993869;28;20695;-90
2022/11/27 00:55:02;;;;;;;64.60;29.37;;;5.20;96.80;;;;;;4993276;28;20206;-90
2022/11/27 00:57:28;;;;;;;72.67;28.20;;;5.10;96.80;;;;;;4992745;28;20185;-90
2022/11/27 00:59:53;;;;;;;67.57;28.20;;;5.00;96.80;;;;;;4992488;28;20178;-90
2022/11/27 01:02:19;;;;;;;64.80;28.03;;;5.00;96.70;;;;;;4992487;28;20185;-90
2022/11/27 01:04:46;;;;;;;68.50;26.13;;;5.00;96.80;;;;;;4992995;28;20178;-90
2022/11/27 01:07:11;;;;;;;51.13;25.03;;;5.10;96.80;;;;;;4993842;28;20658;-89
2022/11/27 01:09:37;;;;;;;59.80;25.27;;;5.00;96.80;;;;;;4997811;28;20212;-89
2022/11/27 01:12:03;;;;;;;63.23;26.80;;;5.00;96.80;;;;;;4997853;28;20205;-90
2022/11/27 01:14:29;;;;;;;62.43;25.07;;;5.00;96.80;;;;;;4996202;28;20178;-90
2022/11/27 01:16:54;;;;;;;58.43;23.23;;;5.00;96.80;;;;;;4997207;28;20205;-90
2022/11/27 01:19:20;;;;;;;59.83;25.10;;;5.00;96.80;;;;;;4997437;28;20177;-89
2022/11/27 01:21:45;;;;;;;53.67;22.90;;;5.10;96.80;;;;;;4995975;28;20181;-89
2022/11/27 01:24:14;;;;;;;65.83;24.10;;;5.10;96.80;;;;;;4996236;28;20178;-89
2022/11/27 01:26:40;;;;;;;49.23;22.20;;;5.10;96.80;;;;;;4997065;28;20224;-89
2022/11/27 01:29:06;;;;;;;62.35;23.35;;;5.00;96.70;;;;;;4997147;28;20162;-89
2022/11/27 01:31:33;;;;;;;54.50;21.87;;;5.00;96.70;;;;;;4997158;28;20201;-89
2022/11/27 01:34:01;;;;;;;51.17;20.60;;;4.90;96.70;;;;;;4995954;28;20215;-90
2022/11/27 01:36:28;;;;;;;47.40;20.77;;;4.90;96.70;;;;;;4995809;28;20201;-89
2022/11/27 01:38:54;;;;;;;47.07;19.53;;;5.00;96.70;;;;;;4997163;28;20181;-89
2022/11/27 01:41:22;;;;;;;40.40;20.83;;;5.00;96.70;;;;;;4995632;28;20174;-89
2022/11/27 01:43:56;;;;;;;50.80;20.73;;;5.00;96.70;;;;;;4995657;28;20268;-89
2022/11/27 01:46:40;;;;;;;41.07;19.80;;;5.00;96.70;;;;;;4995496;28;20202;-89
2022/11/27 01:49:08;;;;;;;44.20;19.03;;;5.00;96.70;;;;;;4996841;28;20305;-90
2022/11/27 01:51:49;;;;;;;51.80;19.80;;;4.90;96.70;;;;;;4995317;28;20233;-90
2022/11/27 01:54:17;;;;;;;39.37;19.40;;;4.90;96.70;;;;;;4995415;28;20167;-89
2022/11/27 01:56:46;;;;;;;52.33;20.27;;;4.80;96.60;;;;;;4995364;28;20340;-90
2022/11/27 01:59:13;;;;;;;45.70;18.97;;;4.90;96.70;;;;;;4995297;28;20654;-90
2022/11/27 02:01:39;;;;;;;43.53;20.93;;;4.80;96.60;;;;;;4996378;28;20178;-90
2022/11/27 02:04:04;;;;;;;57.97;24.60;;;4.70;96.60;;;;;;4996472;28;20174;-90
2022/11/27 02:06:30;;;;;;;47.67;18.87;;;4.70;96.60;;;;;;4996776;28;20194;-91
2022/11/27 02:08:56;;;;;;;51.07;18.80;;;4.70;96.60;;;;;;4996594;28;20244;-91
2022/11/27 02:12:00;;;;;;;53.13;19.43;;;4.70;96.60;;;;;;4995356;28;20200;-90
2022/11/27 02:14:59;;;;;;;43.40;18.43;;;4.60;96.60;;;;;;4996451;28;20232;-90
2022/11/27 02:17:49;;;;;;;40.77;18.20;;;4.60;96.60;;;;;;4995144;28;20170;-90
2022/11/27 02:20:29;;;;;;;45.67;18.57;;;4.60;96.60;;;;;;4995728;28;20168;-91
2022/11/27 02:23:04;;;;;;;37.03;17.33;;;4.70;96.60;;;;;;4996684;28;20158;-90
2022/11/27 02:25:54;;;;;;;50.87;18.73;;;4.70;96.60;;;;;;4995159;28;20572;-90
2022/11/27 02:28:50;;;;;;;42.17;17.17;;;4.60;96.60;;;;;;4996341;28;20193;-91
2022/11/27 02:31:33;;;;;;;38.60;17.93;;;4.60;96.60;;;;;;4995189;28;20201;-91
2022/11/27 02:34:12;;;;;;;40.47;18.50;;;4.60;96.60;;;;;;4995172;28;20660;-90
2022/11/27 02:36:46;;;;;;;50.10;17.37;;;4.60;96.60;;;;;;4994772;28;20223;-90
2022/11/27 02:39:18;;;;;;;38.07;17.07;;;4.60;96.60;;;;;;4994697;28;20184;-90
2022/11/27 02:41:52;;;;;;;35.13;17.03;;;4.50;96.50;;;;;;4994825;28;20181;-90
2022/11/27 02:44:20;;;;;;;36.27;16.57;;;4.50;96.60;;;;;;4994695;28;20268;-90
2022/11/27 02:46:47;;;;;;;46.33;18.03;;;4.50;96.50;;;;;;4994535;28;20197;-90
2022/11/27 02:49:17;;;;;;;42.40;17.90;;;4.40;96.50;;;;;;4994739;28;20220;-90
2022/11/27 02:51:48;;;;;;;48.67;18.30;;;4.40;96.50;;;;;;4996276;28;20197;-90
2022/11/27 02:54:19;;;;;;;35.10;18.00;;;4.30;96.50;;;;;;4994625;28;20267;-90
2022/11/27 02:56:47;;;;;;;43.63;17.00;;;4.30;96.40;;;;;;4995709;28;20272;-90
2022/11/27 02:59:15;;;;;;;45.73;17.90;;;4.20;96.40;;;;;;4995589;28;20196;-90
2022/11/27 03:01:46;;;;;;;30.03;16.83;;;4.10;96.40;;;;;;4994619;28;20177;-90
2022/11/27 03:04:16;;;;;;;53.13;16.57;;;4.00;96.40;;;;;;4996242;28;20162;-90
2022/11/27 03:06:46;;;;;;;34.37;16.30;;;4.00;96.40;;;;;;4995595;28;20183;-90
2022/11/27 03:09:16;;;;;;;40.67;17.17;;;4.00;96.40;;;;;;4994703;28;20645;-90
2022/11/27 03:11:43;;;;;;;38.37;16.40;;;4.00;96.40;;;;;;4994527;28;20697;-90
2022/11/27 03:14:11;;;;;;;41.83;17.80;;;4.00;96.40;;;;;;4994246;28;20238;-90
2022/11/27 03:16:42;;;;;;;45.80;18.80;;;4.00;96.40;;;;;;4994086;28;20255;-90
2022/11/27 03:19:26;;;;;;;48.27;18.33;;;4.00;96.40;;;;;;4995376;28;20670;-90
2022/11/27 03:22:00;;;;;;;45.27;17.57;;;4.00;96.40;;;;;;4994046;28;20190;-91
2022/11/27 03:24:28;;;;;;;41.27;17.10;;;4.00;96.40;;;;;;4993884;28;20172;-91
2022/11/27 03:26:56;;;;;;;46.17;18.73;;;4.00;96.40;;;;;;4993879;28;20196;-90
2022/11/27 03:29:44;;;;;;;42.43;17.73;;;4.00;96.40;;;;;;4993951;28;20267;-90
2022/11/27 03:32:09;;;;;;;41.50;19.47;;;4.10;96.40;;;;;;4995043;28;20188;-90
2022/11/27 03:34:36;;;;;;;42.90;18.30;;;4.10;96.40;;;;;;4994847;28;20177;-90
2022/11/27 03:37:02;;;;;;;40.43;19.80;;;4.10;96.40;;;;;;4993536;28;20198;-90
2022/11/27 03:39:29;;;;;;;47.10;19.40;;;4.20;96.40;;;;;;4993663;28;20185;-90
2022/11/27 03:42:07;;;;;;;49.50;20.07;;;4.20;96.40;;;;;;4993604;28;20215;-90
2022/11/27 03:45:00;;;;;;;37.10;19.53;;;4.20;96.40;;;;;;4993948;28;20178;-90
2022/11/27 03:48:09;;;;;;;40.77;20.40;;;4.20;96.40;;;;;;4993666;28;20179;-90
2022/11/27 03:50:57;;;;;;;40.57;18.80;;;4.20;96.40;;;;;;4988754;28;20824;-90
2022/11/27 03:53:55;;;;;;;48.10;18.80;;;4.20;96.30;;;;;;4993378;28;20201;-90
2022/11/27 03:56:27;;;;;;;39.73;18.33;;;4.20;96.30;;;;;;4994315;28;20225;-90
2022/11/27 03:58:58;;;;;;;45.53;21.40;;;4.20;96.30;;;;;;4993463;28;20701;-90
2022/11/27 04:01:26;;;;;;;42.50;19.57;;;4.20;96.30;;;;;;4994479;28;20222;-90
2022/11/27 04:03:52;;;;;;;43.50;20.15;;;4.20;96.30;;;;;;4994053;28;20634;-90
2022/11/27 04:06:17;;;;;;;49.73;19.20;;;4.20;96.30;;;;;;4993117;28;20438;-90
2022/11/27 04:08:45;;;;;;;37.80;19.60;;;4.20;96.30;;;;;;4993299;28;20257;-90
2022/11/27 04:11:12;;;;;;;41.90;20.13;;;4.20;96.20;;;;;;4992995;28;20203;-90
2022/11/27 04:13:37;;;;;;;43.70;19.87;;;4.10;96.20;;;;;;4993155;28;20173;-90
2022/11/27 04:16:03;;;;;;;49.47;19.93;;;4.20;96.30;;;;;;4993197;28;20285;-90
2022/11/27 04:18:29;;;;;;;54.30;20.60;;;4.10;96.20;;;;;;4994294;28;20188;-90
2022/11/27 04:20:55;;;;;;;39.00;20.60;;;4.10;96.20;;;;;;4993084;28;20179;-90
2022/11/27 04:23:20;;;;;;;48.33;21.33;;;4.00;96.10;;;;;;4993050;28;20183;-90
2022/11/27 04:25:47;;;;;;;38.47;20.17;;;3.90;96.10;;;;;;4992956;28;20238;-90
2022/11/27 04:28:13;;;;;;;53.00;22.57;;;4.00;96.10;;;;;;4994143;28;20179;-90
2022/11/27 04:30:38;;;;;;;41.10;22.00;;;3.90;96.10;;;;;;4993948;28;20200;-90
2022/11/27 04:33:04;;;;;;;46.40;20.00;;;3.90;96.10;;;;;;4993129;28;20181;-91
2022/11/27 04:35:29;;;;;;;40.30;19.77;;;3.80;96.10;;;;;;4993720;28;20287;-90
2022/11/27 04:37:56;;;;;;;44.93;20.90;;;3.80;96.10;;;;;;4994144;28;20215;-90
2022/11/27 04:40:22;;;;;;;46.13;21.23;;;3.80;96.10;;;;;;4992909;28;20226;-90
2022/11/27 04:42:48;;;;;;;51.40;22.07;;;3.80;96.10;;;;;;4994400;28;20640;-90
2022/11/27 04:45:13;;;;;;;49.77;21.57;;;3.90;96.10;;;;;;4996832;28;20303;-90
2022/11/27 04:47:39;;;;;;;46.33;22.57;;;3.90;96.10;;;;;;4996652;28;20186;-90
2022/11/27 04:50:05;;;;;;;44.67;21.97;;;3.90;96.10;;;;;;4996728;28;20174;-90
2022/11/27 04:52:31;;;;;;;56.60;22.77;;;3.90;96.10;;;;;;4997989;28;20173;-90
2022/11/27 04:54:56;;;;;;;41.57;22.10;;;3.90;96.00;;;;;;4997979;28;20177;-90
2022/11/27 04:57:22;;;;;;;43.23;21.87;;;3.90;96.00;;;;;;4997909;28;20174;-91
2022/11/27 04:59:47;;;;;;;46.67;22.97;;;3.80;96.00;;;;;;4996979;28;20724;-90
2022/11/27 05:02:13;;;;;;;45.77;22.53;;;3.80;96.00;;;;;;4996574;28;20192;-90
2022/11/27 05:04:39;;;;;;;46.90;22.60;;;3.90;96.00;;;;;;4996540;28;20587;-89
2022/11/27 05:07:04;;;;;;;43.30;22.80;;;3.90;96.00;;;;;;4996989;28;20280;-89
2022/11/27 05:09:30;;;;;;;43.30;22.57;;;3.90;96.00;;;;;;4996254;28;20564;-89
2022/11/27 05:11:55;;;;;;;53.33;23.57;;;3.80;96.00;;;;;;4997172;28;20194;-89
2022/11/27 05:14:25;;;;;;;49.07;22.83;;;3.80;96.00;;;;;;4996202;28;20709;-90
2022/11/27 05:16:53;;;;;;;41.13;21.80;;;3.90;96.00;;;;;;4996230;28;20690;-89
2022/11/27 05:19:21;;;;;;;43.67;22.63;;;3.80;96.00;;;;;;4996897;28;20639;-89
2022/11/27 05:21:47;;;;;;;51.73;21.57;;;3.80;95.90;;;;;;4996160;28;20673;-89
2022/11/27 05:24:14;;;;;;;37.90;19.53;;;3.80;95.90;;;;;;4996206;28;20555;-89
2022/11/27 05:26:40;;;;;;;41.10;21.53;;;3.70;95.90;;;;;;4996320;28;20297;-89
2022/11/27 05:29:06;;;;;;;35.50;20.97;;;3.80;95.90;;;;;;4996100;28;20276;-89
2022/11/27 05:31:32;;;;;;;40.23;20.20;;;3.70;95.90;;;;;;4995816;28;20225;-89
2022/11/27 05:33:58;;;;;;;38.50;20.87;;;3.70;95.90;;;;;;4995754;28;20188;-89
2022/11/27 05:36:24;;;;;;;45.27;19.67;;;3.70;95.90;;;;;;4995798;28;20205;-89
2022/11/27 05:38:51;;;;;;;44.23;18.97;;;3.60;95.90;;;;;;4996387;28;20219;-89
2022/11/27 05:41:16;;;;;;;36.60;20.17;;;3.60;95.90;;;;;;4995683;28;20189;-90
2022/11/27 05:43:42;;;;;;;40.20;20.47;;;3.70;95.90;;;;;;4995615;28;20178;-89
2022/11/27 05:46:09;;;;;;;42.97;19.57;;;3.60;95.80;;;;;;4995549;28;20686;-89
2022/11/27 05:48:35;;;;;;;43.15;19.50;;;3.50;95.80;;;;;;4995513;28;20182;-89
2022/11/27 05:51:02;;;;;;;30.50;18.45;;;3.50;95.80;;;;;;4995368;28;20218;-89
2022/11/27 05:53:28;;;;;;;38.00;20.30;;;3.50;95.80;;;;;;4995269;28;20188;-89
2022/11/27 05:55:59;;;;;;;46.40;20.70;;;3.40;95.80;;;;;;4995306;28;20225;-89
2022/11/27 05:58:24;;;;;;;43.90;21.33;;;3.30;95.80;;;;;;4995602;28;20178;-90
2022/11/27 06:00:50;;;;;;;39.33;22.50;;;3.40;95.80;;;;;;4995265;28;20184;-89
2022/11/27 06:03:15;;;;;;;40.33;21.47;;;3.30;95.80;;;;;;4995222;28;20184;-89
2022/11/27 06:05:41;;;;;;;38.00;22.43;;;3.30;95.80;;;;;;4995077;28;20206;-89
2022/11/27 06:08:06;;;;;;;41.40;22.80;;;3.40;95.80;;;;;;4995296;28;20210;-90
2022/11/27 06:10:33;;;;;;;44.03;23.87;;;3.40;95.80;;;;;;4995061;28;20208;-89
2022/11/27 06:12:58;;;;;;;54.50;23.83;;;3.30;95.80;;;;;;4995005;28;20317;-89
2022/11/27 06:15:24;;;;;;;39.10;23.27;;;3.40;95.80;;;;;;4994976;28;20227;-89
2022/11/27 06:17:49;;;;;;;44.97;22.77;;;3.40;95.80;;;;;;4996486;28;20169;-89
2022/11/27 06:20:15;;;;;;;44.40;24.27;;;3.30;95.80;;;;;;4994869;28;20638;-89
2022/11/27 06:22:41;;;;;;;34.90;22.97;;;3.30;95.80;;;;;;4994930;28;20174;-89
2022/11/27 06:25:07;;;;;;;41.93;23.63;;;3.30;95.70;;;;;;4994913;28;20545;-89
2022/11/27 06:27:34;;;;;;;42.30;24.30;;;3.20;95.70;;;;;;4995860;28;20182;-89
2022/11/27 06:29:59;;;;;;;45.17;23.77;;;3.20;95.70;;;;;;4994880;28;20184;-89
2022/11/27 06:32:25;;;;;;;46.07;25.50;;;3.10;95.70;;;;;;4994690;28;20242;-89
2022/11/27 06:34:51;;;;;;;41.23;23.77;;;3.20;95.80;;;;;;4995847;28;20253;-89
2022/11/27 06:37:16;;;;;;;42.73;24.43;;;3.20;95.70;;;;;;4994619;28;20626;-89
2022/11/27 06:39:42;;;;;;;47.17;25.57;;;3.20;95.70;;;;;;4995774;28;20198;-89
2022/11/27 06:42:07;;;;;;;46.10;24.97;;;3.20;95.70;;;;;;4994599;28;20216;-89
2022/11/27 06:44:33;;;;;;;41.40;23.97;;;3.20;95.80;;;;;;4994405;28;20185;-89
2022/11/27 06:46:59;;;;;;;42.20;24.30;;;3.20;95.70;;;;;;4994370;28;20203;-89
2022/11/27 06:49:24;;;;;;;47.60;24.50;;;3.20;95.70;;;;;;4994450;28;20647;-89
2022/11/27 06:51:50;;;;;;;39.10;21.57;;;3.20;95.70;;;;;;4994261;28;20695;-89
2022/11/27 06:54:16;;;;;;;35.57;23.03;;;3.20;95.70;;;;;;4994904;28;20633;-90
2022/11/27 06:56:41;;;;;;;40.17;25.67;;;3.20;95.70;;;;;;4994207;28;20203;-89
2022/11/27 06:59:10;;;;;;;46.73;29.20;;;3.20;95.60;;;;;;4994211;28;20234;-89
2022/11/27 07:01:35;;;;;;;57.80;31.10;;;3.10;95.60;;;;;;4994465;28;20226;-89
2022/11/27 07:04:01;;;;;;;56.47;31.73;;;3.10;95.60;;;;;;4994118;28;20184;-89
2022/11/27 07:06:27;;;;;;;42.90;27.27;;;3.10;95.60;;;;;;4993732;28;20195;-89
2022/11/27 07:08:53;;;;;;;39.63;22.57;;;3.10;95.60;;;;;;4994251;28;20198;-89
2022/11/27 07:11:22;;;;;;;37.30;22.47;;;3.10;95.60;;;;;;4993838;28;20210;-89
2022/11/27 07:13:49;;;;;;;33.33;21.03;;;3.00;95.50;;;;;;4993937;28;20265;-89
2022/11/27 07:16:15;;;;;;;34.70;22.73;;;2.90;95.50;;;;;;4993884;28;20194;-89
2022/11/27 07:18:45;;;;;;;35.13;22.13;;;2.80;95.50;;;;;;4993927;28;20254;-89
2022/11/27 07:21:11;;;;;;;34.10;22.07;;;2.80;95.50;;;;;;4993765;28;20186;-89
2022/11/27 07:23:37;;;;;;;42.80;24.10;;;2.80;95.50;;;;;;4993813;28;20186;-89
2022/11/27 07:26:15;;;;;;;38.70;23.40;;;2.90;95.50;;;;;;4993630;28;20206;-90
2022/11/27 07:28:43;;;;;;;32.70;21.87;;;2.90;95.50;;;;;;4993615;28;20675;-90
2022/11/27 07:31:10;;;;;;;34.73;22.47;;;2.90;95.50;;;;;;4993581;28;20194;-89
2022/11/27 07:33:35;;;;;;;38.47;25.37;;;3.00;95.50;;;;;;4993593;28;20180;-89
2022/11/27 07:36:12;;;;;;;41.03;23.90;;;2.90;95.50;;;;;;4993385;28;20200;-89
2022/11/27 07:38:41;;;;;;;36.50;22.87;;;3.00;95.50;;;;;;4993547;28;20191;-89
2022/11/27 07:41:07;;;;;;;43.30;23.63;;;3.00;95.50;;;;;;4993429;28;20193;-88
2022/11/27 07:43:34;;;;;;;44.10;25.23;;;2.90;95.40;;;;;;4993323;28;20182;-88
2022/11/27 07:46:07;;;;;;;41.83;25.77;;;2.90;95.50;;;;;;4993325;28;20230;-89
2022/11/27 07:48:33;;;;;;;40.57;24.63;;;2.90;95.40;;;;;;4993378;28;20170;-89
2022/11/27 07:50:59;;;;;;;46.43;26.03;;;2.90;95.40;;;;;;4993342;28;20211;-89
2022/11/27 07:53:24;;;;;;;44.20;24.80;;;2.90;95.40;;;;;;4994467;28;20290;-90
2022/11/27 07:55:50;;;;;;;45.93;26.30;;;2.90;95.40;;;;;;4993820;28;20604;-89
2022/11/27 07:58:15;;;;;;;45.75;26.60;;;3.00;95.50;;;;;;4994383;28;20174;-90
2022/11/27 08:00:42;;;;;;;41.40;24.77;;;3.10;95.50;;;;;;4993018;28;20189;-89
2022/11/27 08:03:09;;;;;;;44.73;25.47;;;3.10;95.50;;;;;;4993126;28;20187;-89
2022/11/27 08:05:35;;;;;;;44.73;27.83;;;3.10;95.50;;;;;;4993359;28;20202;-89
2022/11/27 08:08:03;;;;;;;49.43;27.43;;;3.20;95.50;;;;;;4992965;28;20195;-89
2022/11/27 08:10:30;;;;;;;46.13;27.40;;;3.20;95.50;;;;;;4994052;28;20209;-89
2022/11/27 08:12:57;;;;;;;46.63;26.13;;;3.20;95.40;;;;;;4992981;28;20182;-89
2022/11/27 08:15:22;;;;;;;47.80;26.37;;;3.30;95.40;;;;;;4992805;28;20194;-89
2022/11/27 08:17:48;;;;;;;45.27;27.50;;;3.20;95.40;;;;;;4991957;28;20279;-90
2022/11/27 08:20:14;;;;;;;39.77;26.53;;;3.30;95.40;;;;;;4992770;28;20205;-89
2022/11/27 08:22:39;;;;;;;41.47;24.90;;;3.30;95.40;;;;;;4992792;28;20180;-89
2022/11/27 08:25:06;;;;;;;50.43;27.30;;;3.30;95.40;;;;;;4994391;28;20191;-89
2022/11/27 08:27:32;;;;;;;51.00;26.37;;;3.30;95.40;;;;;;4992651;28;20182;-89
2022/11/27 08:29:58;;;;;;;48.33;27.30;;;3.30;95.40;;;;;;4992650;28;20178;-90
2022/11/27 08:32:24;;;;;;;51.13;28.33;;;3.30;95.40;;;;;;4992643;28;20202;-90
2022/11/27 08:34:50;;;;;;;44.97;26.93;;;3.30;95.40;;;;;;4992584;28;20228;-90
2022/11/27 08:37:15;;;;;;;47.67;26.97;;;3.30;95.40;;;;;;4992730;28;20189;-89
2022/11/27 08:39:41;;;;;;;48.57;29.23;;;3.30;95.40;;;;;;4992668;28;20282;-89
2022/11/27 08:42:06;;;;;;;50.20;27.57;;;3.40;95.40;;;;;;4993014;28;20181;-89
2022/11/27 08:44:32;;;;;;;51.73;28.80;;;3.40;95.40;;;;;;4993520;28;20178;-89
2022/11/27 08:46:57;;;;;;;52.20;28.80;;;3.40;95.40;;;;;;4992770;28;20238;-89
2022/11/27 08:49:23;;;;;;;54.90;29.17;;;3.40;95.30;;;;;;4992467;28;20251;-89
2022/11/27 08:51:49;;;;;;;54.93;31.27;;;3.50;95.40;;;;;;4992456;28;20212;-89
2022/11/27 08:54:15;;;;;;;52.33;27.40;;;3.50;95.40;;;;;;4992423;28;20223;-89
2022/11/27 08:56:40;;;;;;;47.27;28.77;;;3.60;95.30;;;;;;4992406;28;20632;-90
2022/11/27 08:59:06;;;;;;;50.63;31.53;;;3.60;95.30;;;;;;4992448;28;20181;-89
2022/11/27 09:01:32;;;;;;;57.10;29.20;;;3.50;95.30;;;;;;4993234;28;20179;-89
2022/11/27 09:03:58;;;;;;;40.93;25.77;;;3.70;95.30;;;;;;4992448;28;20667;-89
2022/11/27 09:06:27;;;;;;;44.87;26.93;;;3.60;95.20;;;;;;4992235;28;20204;-89
2022/11/27 09:08:56;;;;;;;53.93;26.70;;;3.60;95.20;;;;;;4993533;28;20188;-89
2022/11/27 09:11:21;;;;;;;43.33;25.10;;;3.60;95.20;;;;;;4992283;28;20680;-89
2022/11/27 09:13:47;;;;;;;46.85;25.50;;;3.60;95.20;;;;;;4992292;28;20277;-89
2022/11/27 09:16:16;;;;;;;45.43;26.30;;;3.70;95.20;;;;;;4992348;28;20573;-89
2022/11/27 09:18:46;;;;;;;43.50;26.03;;;3.50;95.00;;;;;;4992241;28;20197;-89
2022/11/27 09:21:13;;;;;;;40.80;25.10;;;3.60;95.10;;;;;;4993215;28;20207;-89
2022/11/27 09:23:39;;;;;;;42.33;25.37;;;3.60;95.00;;;;;;4992498;28;20191;-89
2022/11/27 09:26:08;;;;;;;47.40;25.37;;;3.70;95.00;;;;;;4993215;28;20205;-89
2022/11/27 09:28:34;;;;;;;38.73;24.13;;;3.70;95.10;;;;;;4992478;28;20187;-89
2022/11/27 09:31:02;;;;;;;45.90;25.00;;;3.80;95.10;;;;;;4995792;28;20212;-90
2022/11/27 09:33:29;;;;;;;51.37;26.30;;;4.00;95.10;;;;;;4996133;28;20277;-89
2022/11/27 09:35:55;;;;;;;43.73;24.87;;;4.10;95.10;;;;;;4995645;28;20207;-90
2022/11/27 09:38:22;;;;;;;41.73;24.57;;;4.10;95.00;;;;;;4995933;28;20185;-89
2022/11/27 09:40:50;;;;;;;41.87;23.67;;;4.30;95.00;;;;;;4996616;28;20397;-89
2022/11/27 09:43:20;;;;;;;42.30;24.93;;;4.30;95.00;;;;;;4995984;28;20200;-90
2022/11/27 09:45:50;;;;;;;39.87;24.53;;;4.30;94.90;;;;;;4996047;28;20192;-90
2022/11/27 09:48:27;;;;;;;37.13;23.97;;;4.30;94.90;;;;;;4996489;28;20189;-89
2022/11/27 09:50:54;;;;;;;45.83;26.10;;;4.30;94.80;;;;;;4995460;28;20250;-89
2022/11/27 09:53:36;;;;;;;41.37;27.13;;;4.30;94.70;;;;;;4995479;28;20202;-89
2022/11/27 09:56:07;;;;;;;41.77;26.90;;;4.30;94.70;;;;;;4995255;28;20201;-89
2022/11/27 09:58:39;;;;;;;40.33;26.90;;;4.30;94.60;;;;;;4995526;28;20184;-90
2022/11/27 10:01:16;;;;;;;39.53;27.97;;;4.30;94.60;;;;;;4996654;28;20820;-89
2022/11/27 10:03:43;;;;;;;41.03;26.00;;;4.40;94.60;;;;;;4995377;28;20260;-89
2022/11/27 10:06:36;;;;;;;40.33;26.27;;;4.40;94.50;;;;;;4996348;28;20200;-89
2022/11/27 10:09:14;;;;;;;47.40;29.03;;;4.40;94.40;;;;;;4995088;28;20199;-89
2022/11/27 10:11:45;;;;;;;39.63;25.50;;;4.50;94.40;;;;;;4995057;28;20197;-90
2022/11/27 10:14:37;;;;;;;45.33;28.27;;;4.40;94.30;;;;;;4995112;28;20176;-90
2022/11/27 10:17:12;;;;;;;44.53;27.83;;;4.50;94.30;;;;;;4995009;28;20251;-90
2022/11/27 10:19:59;;;;;;;44.07;25.13;;;4.50;94.20;;;;;;4994907;28;20184;-89
2022/11/27 10:23:02;;;;;;;42.20;26.13;;;4.50;94.00;;;;;;4994973;28;20655;-91
2022/11/27 10:25:35;;;;;;;37.97;24.33;;;4.70;94.10;;;;;;4995166;28;20717;-90
2022/11/27 10:28:16;;;;;;;39.20;24.33;;;4.70;94.00;;;;;;4994758;28;20549;-90
2022/11/27 10:31:12;;;;;;;39.63;23.83;;;4.70;93.80;;;;;;4994737;28;20199;-90
2022/11/27 10:33:50;;;;;;;39.93;23.73;;;4.80;93.80;;;;;;4992904;28;20185;-90
2022/11/27 10:36:40;;;;;;;32.47;23.67;;;4.80;93.80;;;;;;4994744;28;20190;-90
2022/11/27 10:39:14;;;;;;;38.20;23.83;;;4.80;93.60;;;;;;4994677;28;20166;-90
2022/11/27 10:41:55;;;;;;;34.87;24.57;;;4.80;93.60;;;;;;4993713;28;20636;-89
2022/11/27 10:44:50;;;;;;;33.83;24.00;;;4.90;93.70;;;;;;4994567;28;20236;-90
2022/11/27 10:47:17;;;;;;;39.03;22.60;;;5.00;93.60;;;;;;4993707;28;20539;-90
2022/11/27 10:49:46;;;;;;;35.73;19.80;;;5.00;93.60;;;;;;4994455;28;20524;-90
2022/11/27 10:52:17;;;;;;;38.40;22.10;;;5.00;93.50;;;;;;4994237;28;20206;-90
2022/11/27 10:54:48;;;;;;;34.17;21.50;;;5.00;93.50;;;;;;4994298;28;20174;-89
2022/11/27 10:57:32;;;;;;;29.87;20.43;;;5.10;93.50;;;;;;4995487;28;20248;-90
2022/11/27 11:00:22;;;;;;;26.40;18.33;;;5.20;93.50;;;;;;4994301;28;20178;-89
2022/11/27 11:02:47;;;;;;;33.17;21.93;;;5.20;93.40;;;;;;4995113;28;20257;-90
2022/11/27 11:05:26;;;;;;;28.03;19.80;;;5.20;93.40;;;;;;4994164;28;20240;-90
2022/11/27 11:08:16;;;;;;;31.43;20.27;;;5.20;93.30;;;;;;4994060;28;20652;-89
2022/11/27 11:10:50;;;;;;;30.87;20.23;;;5.20;93.30;;;;;;4991277;28;20217;-89
2022/11/27 11:13:29;;;;;;;27.23;20.47;;;5.30;93.30;;;;;;4994863;28;20624;-89
2022/11/27 11:16:04;;;;;;;31.93;19.77;;;5.40;93.30;;;;;;4993776;28;20193;-90
2022/11/27 11:18:32;;;;;;;29.67;19.37;;;5.30;93.20;;;;;;4993781;28;20166;-89
2022/11/27 11:21:02;;;;;;;29.87;19.97;;;5.40;93.20;;;;;;4994332;28;20228;-89
2022/11/27 11:23:37;;;;;;;29.80;18.23;;;5.40;93.00;;;;;;4993788;28;20188;-89
2022/11/27 11:26:24;;;;;;;25.17;17.57;;;5.50;92.90;;;;;;4993724;28;20197;-90
2022/11/27 11:28:53;;;;;;;30.43;18.53;;;5.50;92.70;;;;;;4994602;28;20244;-90
2022/11/27 11:31:21;;;;;;;29.13;18.37;;;5.50;92.70;;;;;;4993578;28;20231;-90
2022/11/27 11:34:17;;;;;;;25.03;18.07;;;5.50;92.60;;;;;;4995280;28;20224;-92
2022/11/27 11:37:07;;;;;;;24.17;17.37;;;5.50;92.50;;;;;;4993994;28;20190;-89
2022/11/27 11:39:44;;;;;;;26.67;17.70;;;5.60;92.50;;;;;;4994693;28;20162;-89
2022/11/27 11:42:19;;;;;;;25.27;19.57;;;5.50;92.40;;;;;;4994058;28;20182;-89
2022/11/27 11:44:54;;;;;;;21.87;18.03;;;5.60;92.40;;;;;;4993463;28;20166;-90
2022/11/27 11:47:23;;;;;;;26.93;18.53;;;5.70;92.50;;;;;;4993443;28;20173;-89
2022/11/27 11:49:50;;;;;;;23.17;17.63;;;5.70;92.40;;;;;;4994439;28;20185;-89
2022/11/27 11:52:31;;;;;;;25.60;19.20;;;5.60;92.30;;;;;;4997081;28;20198;-90
2022/11/27 11:55:07;;;;;;;23.87;17.63;;;5.60;92.20;;;;;;4993270;28;20166;-90
2022/11/27 11:57:47;;;;;;;23.60;17.73;;;5.70;92.30;;;;;;4993124;28;20218;-90
2022/11/27 12:00:26;;;;;;;27.27;18.03;;;5.60;92.10;;;;;;4993091;28;20166;-90
2022/11/27 12:03:07;;;;;;;25.43;18.13;;;5.80;92.00;;;;;;4993856;28;20628;-90
2022/11/27 12:06:10;;;;;;;21.70;17.93;;;5.70;91.90;;;;;;4992940;28;20692;-90
2022/11/27 12:08:50;;;;;;;21.43;16.80;;;5.80;91.80;;;;;;4992905;28;20189;-90
2022/11/27 12:11:37;;;;;;;23.37;17.47;;;5.80;91.90;;;;;;4992985;28;20276;-90
2022/11/27 12:14:38;;;;;;;22.43;16.00;;;5.80;91.80;;;;;;4992885;28;20174;-89
2022/11/27 12:17:30;;;;;;;20.40;15.47;;;5.80;91.70;;;;;;4994111;28;20228;-90
2022/11/27 12:20:14;;;;;;;25.23;17.03;;;5.80;91.50;;;;;;4992965;28;20174;-88
2022/11/27 12:23:16;;;;;;;35.07;20.87;;;5.80;91.40;;;;;;4993136;28;20165;-92
2022/11/27 12:25:57;;;;;;;36.90;19.60;;;5.90;91.40;;;;;;4993046;28;20699;-90
2022/11/27 12:28:52;;;;;;;32.33;18.30;;;5.90;91.40;;;;;;4993073;28;20166;-89
2022/11/27 12:32:02;;;;;;;53.03;25.07;;;5.80;91.20;;;;;;4994231;28;20186;-90
2022/11/27 12:35:05;;;;;;;39.20;21.20;;;5.90;91.20;;;;;;4992884;28;20260;-90
2022/11/27 12:38:06;;;;;;;29.27;19.20;;;5.90;91.00;;;;;;4992762;28;20259;-91
2022/11/27 12:41:08;;;;;;;38.00;21.73;;;5.80;90.70;;;;;;4975631;28;20230;-90
2022/11/27 12:43:50;;;;;;;30.27;18.40;;;5.90;90.80;;;;;;4992731;28;20165;-90
2022/11/27 12:46:55;;;;;;;31.63;17.40;;;5.80;90.60;;;;;;4993279;28;20734;-90
2022/11/27 12:49:39;;;;;;;43.20;21.77;;;5.90;90.60;;;;;;4993016;28;20162;-92
2022/11/27 12:52:17;;;;;;;32.83;19.00;;;5.90;90.60;;;;;;4992531;28;20270;-90
2022/11/27 12:54:55;;;;;;;27.13;18.23;;;5.90;90.60;;;;;;4992595;28;20166;-90
2022/11/27 12:57:38;;;;;;;52.40;26.20;;;5.80;90.50;;;;;;4992527;28;20228;-90